Time;durP1;ratioP1;P1;durP2;ratioP2;P2;SDS_P1;SDS_P2;PMS_P1;PMS_P2;Temp;Humidity;BMP_temperature;BMP_pressure;BME280_temperature;BME280_humidity;BME280_pressure;Samples;Min_cycle;Max_cycle;Signal;HPM_P1;HPM_P2
2023/11/13 00:01:29;;;;;;;2.10;1.90;;;6.50;98.20;;;;;;4965060;28;20477;-80
2023/11/13 00:03:56;;;;;;;1.67;1.40;;;6.50;98.20;;;;;;4979585;28;20473;-80
2023/11/13 00:06:23;;;;;;;1.60;1.20;;;6.50;98.20;;;;;;4964808;28;20481;-79
2023/11/13 00:08:50;;;;;;;1.60;1.30;;;6.50;98.20;;;;;;4980229;28;20867;-80
2023/11/13 00:11:16;;;;;;;1.70;1.40;;;6.60;98.20;;;;;;4966307;28;20481;-81
2023/11/13 00:13:44;;;;;;;1.60;1.30;;;6.60;98.20;;;;;;4981496;28;20482;-80
2023/11/13 00:16:11;;;;;;;1.60;1.30;;;6.60;98.20;;;;;;4963134;28;20536;-81
2023/11/13 00:18:39;;;;;;;1.60;1.30;;;6.70;98.20;;;;;;4981800;28;20481;-79
2023/11/13 00:21:06;;;;;;;1.70;1.40;;;6.70;98.20;;;;;;4961765;28;20549;-80
2023/11/13 00:23:32;;;;;;;1.60;1.20;;;6.70;98.20;;;;;;4982219;28;20769;-80
2023/11/13 00:25:59;;;;;;;1.60;1.30;;;6.70;98.20;;;;;;4961850;28;20498;-80
2023/11/13 00:28:26;;;;;;;1.60;1.30;;;6.70;98.20;;;;;;4981656;28;20493;-80
2023/11/13 00:30:53;;;;;;;1.60;1.30;;;6.70;98.20;;;;;;4960915;28;20482;-80
2023/11/13 00:33:19;;;;;;;1.60;1.23;;;6.80;98.20;;;;;;4980841;28;20564;-80
2023/11/13 00:35:47;;;;;;;1.60;1.30;;;6.80;98.20;;;;;;4972593;28;20499;-80
2023/11/13 00:38:14;;;;;;;1.70;1.40;;;6.80;98.20;;;;;;4953738;28;20482;-80
2023/11/13 00:40:41;;;;;;;1.60;1.20;;;6.80;98.20;;;;;;4969532;28;20474;-78
2023/11/13 00:43:09;;;;;;;1.60;1.30;;;6.80;98.20;;;;;;4975012;28;20485;-82
2023/11/13 00:45:36;;;;;;;1.60;1.20;;;6.80;98.20;;;;;;4969110;28;20466;-80
2023/11/13 00:48:02;;;;;;;1.60;1.30;;;6.80;98.20;;;;;;4975192;28;20493;-81
2023/11/13 00:50:29;;;;;;;1.60;1.20;;;6.80;98.20;;;;;;4970100;28;20768;-78
2023/11/13 00:52:57;;;;;;;1.60;1.33;;;6.80;98.20;;;;;;4975072;28;20488;-80
2023/11/13 00:55:25;;;;;;;2.63;2.43;;;6.80;98.20;;;;;;4969324;28;21031;-81
2023/11/13 00:57:52;;;;;;;1.60;1.40;;;6.80;98.20;;;;;;4975629;28;20492;-80
2023/11/13 01:00:21;;;;;;;1.63;1.30;;;6.80;98.20;;;;;;4969865;28;20961;-81
2023/11/13 01:02:47;;;;;;;1.63;1.40;;;6.80;98.20;;;;;;4973370;28;20513;-80
2023/11/13 01:05:14;;;;;;;1.60;1.30;;;6.80;98.20;;;;;;4969564;28;20465;-80
2023/11/13 01:07:41;;;;;;;1.63;1.30;;;6.80;98.20;;;;;;4972582;28;20489;-80
2023/11/13 01:10:10;;;;;;;1.60;1.30;;;6.80;98.20;;;;;;4970178;28;20496;-80
2023/11/13 01:12:37;;;;;;;1.60;1.30;;;6.80;98.20;;;;;;4973141;28;20481;-80
2023/11/13 01:15:06;;;;;;;1.60;1.20;;;6.80;98.20;;;;;;4973374;28;20470;-79
2023/11/13 01:17:33;;;;;;;1.60;1.20;;;6.80;98.20;;;;;;4976000;28;20491;-80
2023/11/13 01:20:00;;;;;;;1.60;1.40;;;6.80;98.20;;;;;;4971195;28;20462;-80
2023/11/13 01:22:27;;;;;;;1.63;1.30;;;6.80;98.20;;;;;;4971881;28;20544;-79
2023/11/13 01:24:54;;;;;;;1.60;1.30;;;6.80;98.20;;;;;;4971325;28;20550;-79
2023/11/13 01:27:22;;;;;;;1.70;1.50;;;6.80;98.20;;;;;;4973447;28;20481;-81
2023/11/13 01:29:49;;;;;;;1.60;1.40;;;6.80;98.20;;;;;;4971072;28;20556;-80
2023/11/13 01:32:16;;;;;;;1.63;1.30;;;6.80;98.20;;;;;;4970063;28;20495;-81
2023/11/13 01:34:43;;;;;;;1.63;1.30;;;6.80;98.20;;;;;;4972887;28;20472;-80
2023/11/13 01:37:10;;;;;;;1.67;1.40;;;6.80;98.20;;;;;;4973634;28;20495;-80
2023/11/13 01:39:37;;;;;;;3.20;3.00;;;6.80;98.20;;;;;;4976003;28;20462;-80
2023/11/13 01:42:05;;;;;;;1.60;1.30;;;6.90;98.20;;;;;;4972320;28;20507;-80
2023/11/13 01:44:33;;;;;;;1.60;1.20;;;6.90;98.20;;;;;;4976133;28;20465;-79
2023/11/13 01:47:00;;;;;;;1.80;1.60;;;6.90;98.20;;;;;;4970915;28;20925;-80
2023/11/13 01:49:27;;;;;;;1.60;1.20;;;6.90;98.20;;;;;;4977375;28;20520;-80
2023/11/13 01:51:54;;;;;;;1.70;1.37;;;6.90;98.20;;;;;;4970755;28;20495;-80
2023/11/13 01:54:23;;;;;;;1.60;1.20;;;6.90;98.20;;;;;;4980429;28;21634;-80
2023/11/13 01:56:51;;;;;;;1.60;1.20;;;6.90;98.20;;;;;;4970258;28;20476;-80
2023/11/13 01:59:18;;;;;;;1.70;1.57;;;6.90;98.20;;;;;;4979754;28;20461;-80
2023/11/13 02:01:47;;;;;;;1.60;1.27;;;7.00;98.20;;;;;;4968535;28;20564;-79
2023/11/13 02:04:13;;;;;;;1.60;1.27;;;7.00;98.20;;;;;;4978835;28;20553;-80
2023/11/13 02:06:40;;;;;;;1.60;1.30;;;7.00;98.20;;;;;;4966627;28;20488;-80
2023/11/13 02:09:10;;;;;;;1.60;1.20;;;7.00;98.20;;;;;;4979024;28;20482;-80
2023/11/13 02:11:38;;;;;;;1.70;1.40;;;7.00;98.20;;;;;;4966391;28;20508;-79
2023/11/13 02:14:06;;;;;;;1.60;1.27;;;7.10;98.20;;;;;;4979050;28;20465;-80
2023/11/13 02:16:34;;;;;;;1.70;1.40;;;7.10;98.20;;;;;;4959262;28;21027;-80
2023/11/13 02:19:02;;;;;;;1.60;1.30;;;7.10;98.20;;;;;;4980155;28;20462;-80
2023/11/13 02:21:29;;;;;;;1.60;1.20;;;7.10;98.20;;;;;;4963862;28;20475;-79
2023/11/13 02:23:59;;;;;;;1.60;1.30;;;7.10;98.20;;;;;;4980326;28;20466;-80
2023/11/13 02:26:26;;;;;;;1.60;1.30;;;7.10;98.20;;;;;;4967861;28;20492;-80
2023/11/13 02:28:53;;;;;;;1.60;1.20;;;7.10;98.20;;;;;;4988801;28;20493;-80
2023/11/13 02:31:20;;;;;;;1.60;1.20;;;7.10;98.20;;;;;;4964949;28;20495;-80
2023/11/13 02:33:47;;;;;;;1.60;1.23;;;7.10;98.20;;;;;;4981325;28;20476;-80
2023/11/13 02:36:14;;;;;;;2.90;2.70;;;7.10;98.20;;;;;;4964080;28;20473;-80
2023/11/13 02:38:40;;;;;;;1.60;1.20;;;7.10;98.20;;;;;;4982764;28;20493;-79
2023/11/13 02:41:09;;;;;;;1.60;1.20;;;7.10;98.20;;;;;;4964008;28;20481;-79
2023/11/13 02:43:35;;;;;;;1.60;1.20;;;7.10;98.20;;;;;;4982765;28;20469;-79
2023/11/13 02:46:02;;;;;;;1.60;1.20;;;7.20;98.20;;;;;;4962030;28;20473;-80
2023/11/13 02:48:29;;;;;;;1.70;1.33;;;7.20;98.20;;;;;;4983710;28;20496;-80
2023/11/13 02:50:56;;;;;;;1.67;1.30;;;7.20;98.20;;;;;;4962358;28;20502;-79
2023/11/13 02:53:22;;;;;;;1.60;1.30;;;7.20;98.20;;;;;;4984829;28;20815;-79
2023/11/13 02:55:51;;;;;;;1.70;1.40;;;7.20;98.20;;;;;;4960754;28;20465;-80
2023/11/13 02:58:19;;;;;;;1.63;1.30;;;7.20;98.20;;;;;;4984109;28;20496;-80
2023/11/13 03:00:46;;;;;;;1.60;1.20;;;7.30;98.20;;;;;;4969303;28;20462;-80
2023/11/13 03:03:13;;;;;;;1.60;1.40;;;7.30;98.20;;;;;;4958869;28;20524;-80
2023/11/13 03:05:40;;;;;;;1.60;1.20;;;7.30;98.20;;;;;;4969296;28;20461;-80
2023/11/13 03:08:07;;;;;;;1.60;1.30;;;7.30;98.20;;;;;;4977238;28;20488;-80
2023/11/13 03:10:34;;;;;;;1.60;1.23;;;7.30;98.20;;;;;;4968945;28;20515;-80
2023/11/13 03:13:01;;;;;;;2.03;1.77;;;7.40;98.20;;;;;;4966887;28;21022;-80
2023/11/13 03:15:29;;;;;;;1.60;1.23;;;7.40;98.20;;;;;;4968091;28;21365;-80
2023/11/13 03:17:55;;;;;;;1.60;1.20;;;7.40;98.20;;;;;;4974625;28;20511;-80
2023/11/13 03:20:23;;;;;;;1.63;1.30;;;7.40;98.20;;;;;;4970189;28;20648;-81
2023/11/13 03:22:50;;;;;;;1.60;1.30;;;7.40;98.20;;;;;;4974324;28;20504;-80
2023/11/13 03:25:18;;;;;;;1.60;1.30;;;7.40;98.20;;;;;;4968605;28;20529;-81
2023/11/13 03:27:44;;;;;;;1.60;1.30;;;7.40;98.20;;;;;;4973112;28;20599;-80
2023/11/13 03:30:13;;;;;;;1.60;1.20;;;7.40;98.20;;;;;;4969353;28;20933;-81
2023/11/13 03:32:43;;;;;;;1.60;1.20;;;7.50;98.20;;;;;;4973273;28;20484;-81
2023/11/13 03:35:11;;;;;;;1.60;1.20;;;7.50;98.20;;;;;;4967938;28;20466;-82
2023/11/13 03:37:38;;;;;;;1.60;1.23;;;7.50;98.20;;;;;;4972068;28;20572;-82
2023/11/13 03:40:06;;;;;;;1.60;1.20;;;7.50;98.20;;;;;;4971029;28;20458;-81
2023/11/13 03:42:33;;;;;;;1.60;1.30;;;7.50;98.20;;;;;;4971632;28;20489;-81
2023/11/13 03:45:00;;;;;;;1.60;1.30;;;7.50;98.20;;;;;;4970244;28;20858;-81
2023/11/13 03:47:28;;;;;;;1.60;1.20;;;7.40;98.20;;;;;;4967633;28;20485;-82
2023/11/13 03:49:57;;;;;;;1.60;1.20;;;7.40;98.20;;;;;;4975232;28;20495;-81
2023/11/13 03:52:24;;;;;;;3.10;2.17;;;7.50;98.20;;;;;;4972333;28;20481;-82
2023/11/13 03:54:51;;;;;;;2.97;2.50;;;7.50;98.20;;;;;;4971229;28;20469;-82
2023/11/13 03:57:17;;;;;;;1.60;1.20;;;7.50;98.20;;;;;;4970246;28;20485;-82
2023/11/13 03:59:44;;;;;;;1.70;1.40;;;7.50;98.20;;;;;;4972728;28;20458;-82
2023/11/13 04:02:11;;;;;;;1.60;1.23;;;7.50;98.20;;;;;;4972547;28;20480;-82
2023/11/13 04:04:38;;;;;;;1.60;1.20;;;7.50;98.20;;;;;;4973660;28;20470;-80
2023/11/13 04:07:06;;;;;;;1.60;1.20;;;7.50;98.20;;;;;;4970228;28;20491;-82
2023/11/13 04:09:34;;;;;;;1.60;1.20;;;7.50;98.20;;;;;;4974520;28;20612;-81
2023/11/13 04:12:01;;;;;;;1.60;1.30;;;7.50;98.20;;;;;;4970591;28;20481;-81
2023/11/13 04:14:29;;;;;;;1.60;1.30;;;7.60;98.20;;;;;;4974724;28;20493;-82
2023/11/13 04:16:55;;;;;;;1.60;1.20;;;7.60;98.20;;;;;;4966175;28;20580;-82
2023/11/13 04:19:23;;;;;;;2.43;2.23;;;7.60;98.20;;;;;;4981917;28;20468;-83
2023/11/13 04:21:50;;;;;;;1.60;1.20;;;7.60;98.20;;;;;;4973548;28;20532;-83
2023/11/13 04:24:18;;;;;;;1.60;1.27;;;7.60;98.20;;;;;;4976508;28;20508;-83
2023/11/13 04:26:45;;;;;;;1.70;1.57;;;7.60;98.20;;;;;;4970688;28;20473;-85
2023/11/13 04:29:12;;;;;;;1.87;1.60;;;7.70;98.20;;;;;;4982138;28;20498;-84
2023/11/13 04:31:39;;;;;;;1.60;1.20;;;7.70;98.20;;;;;;4969388;28;20472;-84
2023/11/13 04:34:06;;;;;;;1.60;1.30;;;7.70;98.20;;;;;;4982184;28;20462;-84
2023/11/13 04:36:33;;;;;;;1.60;1.20;;;7.70;98.20;;;;;;4971128;28;20476;-84
2023/11/13 04:39:00;;;;;;;1.60;1.20;;;7.70;98.20;;;;;;4983661;28;20458;-85
2023/11/13 04:41:28;;;;;;;11.17;9.97;;;7.70;98.20;;;;;;4969199;28;20589;-84
2023/11/13 04:43:58;;;;;;;1.60;1.20;;;7.70;98.20;;;;;;4983812;28;20497;-83
2023/11/13 04:46:25;;;;;;;1.60;1.20;;;7.70;98.20;;;;;;4970103;28;21009;-84
2023/11/13 04:48:52;;;;;;;2.13;1.93;;;7.60;98.20;;;;;;4983998;28;20486;-83
2023/11/13 04:51:19;;;;;;;1.60;1.20;;;7.60;98.20;;;;;;4968347;28;20476;-82
2023/11/13 04:53:45;;;;;;;1.67;1.40;;;7.70;98.20;;;;;;4981414;28;20466;-83
2023/11/13 04:56:12;;;;;;;1.70;1.50;;;7.70;98.20;;;;;;4963341;28;20508;-82
2023/11/13 04:58:40;;;;;;;1.60;1.30;;;7.70;98.20;;;;;;4983391;28;20548;-82
2023/11/13 05:01:07;;;;;;;1.60;1.20;;;7.70;98.20;;;;;;4964550;28;20462;-82
2023/11/13 05:03:35;;;;;;;1.60;1.20;;;7.70;98.20;;;;;;4982841;28;20556;-81
2023/11/13 05:06:02;;;;;;;1.67;1.40;;;7.70;98.20;;;;;;4964140;28;20937;-81
2023/11/13 05:08:30;;;;;;;1.60;1.30;;;7.70;98.20;;;;;;4985653;28;20492;-83
2023/11/13 05:10:57;;;;;;;1.60;1.30;;;7.70;98.20;;;;;;4966783;28;20695;-82
2023/11/13 05:13:23;;;;;;;1.60;1.20;;;7.70;98.20;;;;;;4991413;28;20465;-83
2023/11/13 05:15:53;;;;;;;1.60;1.20;;;7.70;98.20;;;;;;4968935;28;20466;-82
2023/11/13 05:18:20;;;;;;;1.63;1.30;;;7.70;98.20;;;;;;4986493;28;20496;-82
2023/11/13 05:20:47;;;;;;;1.67;1.30;;;7.70;98.20;;;;;;4975045;28;20500;-83
2023/11/13 05:23:14;;;;;;;1.63;1.30;;;7.70;98.20;;;;;;4966597;28;20481;-82
2023/11/13 05:25:43;;;;;;;1.60;1.20;;;7.80;98.20;;;;;;4977855;28;21040;-83
2023/11/13 05:28:11;;;;;;;1.60;1.30;;;7.80;98.20;;;;;;4980009;28;20493;-84
2023/11/13 05:30:39;;;;;;;1.60;1.27;;;7.80;98.20;;;;;;4974217;28;20521;-83
2023/11/13 05:33:08;;;;;;;1.60;1.20;;;7.80;98.20;;;;;;4982091;28;20489;-84
2023/11/13 05:35:35;;;;;;;1.60;1.20;;;7.90;98.20;;;;;;4975020;28;20465;-83
2023/11/13 05:38:03;;;;;;;1.60;1.20;;;7.90;98.20;;;;;;4973479;28;20876;-83
2023/11/13 05:40:30;;;;;;;1.60;1.20;;;7.90;98.20;;;;;;4975585;28;20453;-84
2023/11/13 05:42:57;;;;;;;1.60;1.20;;;7.90;98.20;;;;;;4982198;28;20508;-83
2023/11/13 05:45:23;;;;;;;1.60;1.10;;;7.90;98.20;;;;;;4977751;28;20489;-85
2023/11/13 05:47:51;;;;;;;1.70;1.30;;;8.00;98.20;;;;;;4983072;28;20520;-84
2023/11/13 05:50:20;;;;;;;1.60;1.20;;;8.00;98.20;;;;;;4980616;28;20500;-84
2023/11/13 05:52:48;;;;;;;1.63;1.27;;;8.00;98.20;;;;;;4981028;28;20481;-83
2023/11/13 05:55:15;;;;;;;1.60;1.20;;;8.00;98.20;;;;;;4977258;28;20508;-84
2023/11/13 05:57:43;;;;;;;1.63;1.20;;;8.00;98.20;;;;;;4981490;28;20481;-84
2023/11/13 06:00:12;;;;;;;1.60;1.20;;;8.00;98.20;;;;;;4978575;28;20501;-84
2023/11/13 06:02:39;;;;;;;1.60;1.20;;;8.10;98.20;;;;;;4980874;28;20571;-83
2023/11/13 06:05:06;;;;;;;1.60;1.20;;;8.10;98.20;;;;;;4980066;28;20543;-83
2023/11/13 06:07:36;;;;;;;1.60;1.23;;;8.10;98.20;;;;;;4980973;28;20485;-84
2023/11/13 06:10:04;;;;;;;1.70;1.40;;;8.10;98.20;;;;;;4970585;28;20979;-84
2023/11/13 06:12:34;;;;;;;1.60;1.20;;;8.20;98.20;;;;;;4973738;28;20712;-84
2023/11/13 06:15:01;;;;;;;1.60;1.20;;;8.20;98.20;;;;;;4973075;28;20469;-84
2023/11/13 06:17:29;;;;;;;1.60;1.20;;;8.20;98.20;;;;;;4976705;28;20488;-83
2023/11/13 06:19:55;;;;;;;1.63;1.20;;;8.20;98.20;;;;;;4977392;28;20557;-84
2023/11/13 06:22:22;;;;;;;1.60;1.20;;;8.30;98.20;;;;;;4976403;28;20485;-85
2023/11/13 06:24:50;;;;;;;1.63;1.20;;;8.30;98.20;;;;;;4970698;28;20907;-85
2023/11/13 06:27:17;;;;;;;1.60;1.23;;;8.30;98.20;;;;;;4977298;28;20560;-85
2023/11/13 06:29:50;;;;;;;1.67;1.30;;;8.30;98.20;;;;;;4973915;28;20466;-84
2023/11/13 06:32:17;;;;;;;1.60;1.20;;;8.40;98.20;;;;;;4965560;28;20950;-84
2023/11/13 06:34:44;;;;;;;1.60;1.20;;;8.40;98.20;;;;;;4975197;28;20502;-83
2023/11/13 06:37:11;;;;;;;1.67;1.30;;;8.40;98.20;;;;;;4971552;28;20487;-80
2023/11/13 06:39:39;;;;;;;1.60;1.20;;;8.50;98.20;;;;;;4979380;28;20469;-80
2023/11/13 06:42:22;;;;;;;1.60;1.20;;;8.60;98.20;;;;;;4972208;28;21192;-79
2023/11/13 06:44:49;;;;;;;1.63;1.23;;;8.60;98.20;;;;;;4971758;28;20553;-80
2023/11/13 06:47:16;;;;;;;1.67;1.30;;;8.60;98.20;;;;;;4971065;28;20481;-78
2023/11/13 06:49:43;;;;;;;1.60;1.23;;;8.60;98.20;;;;;;4971817;28;20477;-80
2023/11/13 06:52:10;;;;;;;1.60;1.20;;;8.60;98.20;;;;;;4972203;28;20565;-81
2023/11/13 06:54:37;;;;;;;1.60;1.10;;;8.60;98.20;;;;;;4974836;28;20976;-81
2023/11/13 06:57:04;;;;;;;1.60;1.20;;;8.70;98.20;;;;;;4973975;28;20492;-80
2023/11/13 06:59:33;;;;;;;1.70;1.37;;;8.70;98.20;;;;;;4977437;28;20496;-81
2023/11/13 07:01:59;;;;;;;1.60;1.23;;;8.70;98.20;;;;;;4969700;28;20624;-80
2023/11/13 07:04:26;;;;;;;1.60;1.30;;;8.70;98.20;;;;;;4975594;28;20470;-81
2023/11/13 07:06:54;;;;;;;1.60;1.20;;;8.70;98.20;;;;;;4969248;28;20574;-81
2023/11/13 07:09:21;;;;;;;1.60;1.20;;;8.70;98.20;;;;;;4977584;28;20575;-81
2023/11/13 07:11:48;;;;;;;1.60;1.20;;;8.80;98.20;;;;;;4967501;28;20567;-80
2023/11/13 07:14:16;;;;;;;1.60;1.20;;;8.80;98.20;;;;;;4976919;28;20867;-79
2023/11/13 07:16:45;;;;;;;1.70;1.30;;;8.80;98.20;;;;;;4964397;28;20519;-80
2023/11/13 07:19:15;;;;;;;1.60;1.10;;;8.90;98.20;;;;;;4977687;28;20462;-80
2023/11/13 07:21:42;;;;;;;1.67;1.30;;;8.90;98.20;;;;;;4972574;28;20479;-81
2023/11/13 07:24:10;;;;;;;1.60;1.20;;;9.00;98.20;;;;;;4983206;28;21165;-81
2023/11/13 07:26:37;;;;;;;1.60;1.30;;;9.00;98.20;;;;;;4965162;28;20567;-81
2023/11/13 07:29:04;;;;;;;1.60;1.20;;;9.00;98.20;;;;;;4983018;28;20933;-80
2023/11/13 07:31:31;;;;;;;1.60;1.20;;;9.00;98.20;;;;;;4966356;28;20484;-82
2023/11/13 07:34:00;;;;;;;1.60;1.17;;;9.00;98.20;;;;;;4979429;28;20484;-80
2023/11/13 07:36:27;;;;;;;1.70;1.30;;;9.00;98.20;;;;;;4968799;28;20545;-80
2023/11/13 07:38:54;;;;;;;1.60;1.20;;;9.00;98.20;;;;;;4978595;28;22096;-79
2023/11/13 07:41:22;;;;;;;1.60;1.20;;;9.00;98.20;;;;;;4962833;28;20484;-79
2023/11/13 07:43:49;;;;;;;1.60;1.20;;;9.10;98.20;;;;;;4976764;28;20988;-80
2023/11/13 07:46:17;;;;;;;1.80;1.40;;;9.10;98.20;;;;;;4963441;28;20481;-80
2023/11/13 07:48:44;;;;;;;1.60;1.30;;;9.10;98.20;;;;;;4981204;28;20541;-80
2023/11/13 07:51:13;;;;;;;1.60;1.20;;;9.20;98.20;;;;;;4964863;28;20496;-82
2023/11/13 07:53:40;;;;;;;1.60;1.10;;;9.20;98.20;;;;;;4978298;28;20540;-83
2023/11/13 07:56:09;;;;;;;1.60;1.13;;;9.20;98.20;;;;;;4960489;28;20662;-81
2023/11/13 07:58:36;;;;;;;1.60;1.20;;;9.20;98.20;;;;;;4982395;28;20508;-81
2023/11/13 08:01:03;;;;;;;1.60;1.20;;;9.30;98.20;;;;;;4961457;28;20484;-80
2023/11/13 08:03:30;;;;;;;1.60;1.10;;;9.30;98.20;;;;;;4982963;28;20708;-81
2023/11/13 08:05:56;;;;;;;1.60;1.10;;;9.30;98.20;;;;;;4960905;28;20847;-80
2023/11/13 08:08:24;;;;;;;1.67;1.10;;;9.30;98.20;;;;;;4985403;28;20496;-82
2023/11/13 08:10:53;;;;;;;1.60;1.20;;;9.30;98.20;;;;;;4961130;28;20601;-81
2023/11/13 08:13:24;;;;;;;1.60;1.10;;;9.40;98.20;;;;;;4982468;28;20866;-80
2023/11/13 08:15:52;;;;;;;1.60;1.20;;;9.40;98.20;;;;;;4960018;28;21129;-79
2023/11/13 08:18:19;;;;;;;1.60;1.20;;;9.40;98.20;;;;;;4984166;28;20486;-80
2023/11/13 08:20:47;;;;;;;1.60;1.10;;;9.40;98.20;;;;;;4970472;28;20473;-80
2023/11/13 08:23:15;;;;;;;1.67;1.30;;;9.50;98.20;;;;;;4981967;28;20589;-81
2023/11/13 08:25:43;;;;;;;1.60;1.30;;;9.50;98.20;;;;;;4966253;28;20556;-82
2023/11/13 08:28:11;;;;;;;1.70;1.20;;;9.50;98.20;;;;;;4954461;28;20532;-80
2023/11/13 08:30:41;;;;;;;1.60;1.20;;;9.60;98.20;;;;;;4949531;28;20467;-80
2023/11/13 08:33:08;;;;;;;2.00;1.77;;;9.60;98.20;;;;;;4974903;28;20508;-82
2023/11/13 08:35:35;;;;;;;1.60;1.20;;;9.70;98.20;;;;;;4969371;28;20462;-80
2023/11/13 08:38:02;;;;;;;1.60;1.10;;;9.70;98.20;;;;;;4976431;28;20496;-81
2023/11/13 08:40:29;;;;;;;1.60;1.20;;;9.70;98.20;;;;;;4971482;28;20537;-82
2023/11/13 08:42:58;;;;;;;1.60;1.10;;;9.70;98.20;;;;;;4976327;28;20891;-83
2023/11/13 08:45:25;;;;;;;1.63;1.20;;;9.70;98.20;;;;;;4971177;28;20465;-82
2023/11/13 08:47:53;;;;;;;1.60;1.10;;;9.80;98.20;;;;;;4973454;28;20616;-82
2023/11/13 08:50:22;;;;;;;1.67;1.20;;;9.80;98.20;;;;;;4970951;28;20482;-83
2023/11/13 08:52:50;;;;;;;1.90;1.40;;;9.80;98.20;;;;;;4971496;28;20489;-85
2023/11/13 08:55:18;;;;;;;1.63;1.10;;;9.80;98.20;;;;;;4969740;28;20532;-80
2023/11/13 08:57:45;;;;;;;1.60;1.10;;;9.80;98.20;;;;;;4970347;28;20495;-83
2023/11/13 09:00:20;;;;;;;1.60;1.20;;;9.90;98.20;;;;;;4969033;28;21031;-82
2023/11/13 09:02:48;;;;;;;1.60;1.17;;;9.90;98.20;;;;;;4975255;28;20503;-83
2023/11/13 09:05:15;;;;;;;1.60;1.20;;;9.90;98.20;;;;;;4969645;28;20489;-83
2023/11/13 09:07:42;;;;;;;1.60;1.10;;;9.90;98.20;;;;;;4972640;28;20488;-81
2023/11/13 09:10:10;;;;;;;1.60;1.10;;;10.00;98.20;;;;;;4968478;28;20468;-82
2023/11/13 09:12:38;;;;;;;1.67;1.20;;;10.00;98.20;;;;;;4972725;28;20488;-80
2023/11/13 09:15:11;;;;;;;1.70;1.20;;;10.00;98.20;;;;;;4969258;28;20476;-80
2023/11/13 09:17:43;;;;;;;1.63;1.13;;;10.00;98.20;;;;;;4970896;28;20536;-78
2023/11/13 09:20:11;;;;;;;1.60;1.10;;;10.00;98.20;;;;;;4968327;28;20462;-80
2023/11/13 09:22:39;;;;;;;1.60;1.20;;;10.10;98.20;;;;;;4973243;28;20505;-79
2023/11/13 09:25:07;;;;;;;1.60;1.20;;;10.10;98.20;;;;;;4969004;28;20458;-81
2023/11/13 09:27:34;;;;;;;1.60;1.13;;;10.10;98.20;;;;;;4973786;28;20493;-82
2023/11/13 09:30:04;;;;;;;1.70;1.20;;;10.10;98.20;;;;;;4971275;28;20552;-80
2023/11/13 09:32:31;;;;;;;1.60;1.10;;;10.20;98.20;;;;;;4974042;28;20535;-80
2023/11/13 09:34:59;;;;;;;1.60;1.10;;;10.20;98.20;;;;;;4974772;28;20470;-83
2023/11/13 09:37:26;;;;;;;1.60;1.17;;;10.20;98.20;;;;;;4974566;28;20485;-82
2023/11/13 09:39:53;;;;;;;1.60;1.20;;;10.20;98.20;;;;;;4976025;28;20586;-82
2023/11/13 09:42:26;;;;;;;1.60;1.20;;;10.20;98.20;;;;;;4975607;28;20544;-83
2023/11/13 09:44:55;;;;;;;1.60;1.10;;;10.30;98.20;;;;;;4971636;28;20465;-82
2023/11/13 09:47:28;;;;;;;1.63;1.23;;;10.30;98.20;;;;;;4969525;28;21021;-82
2023/11/13 09:50:03;;;;;;;1.60;1.00;;;10.30;98.20;;;;;;4970932;28;20501;-82
2023/11/13 09:52:33;;;;;;;1.70;1.20;;;10.30;98.20;;;;;;4971069;28;20958;-83
2023/11/13 09:55:03;;;;;;;1.63;1.17;;;10.30;98.20;;;;;;4970648;28;20497;-82
2023/11/13 09:57:30;;;;;;;1.60;1.10;;;10.40;98.20;;;;;;4973867;28;20484;-82
2023/11/13 09:59:59;;;;;;;1.60;1.20;;;10.40;98.20;;;;;;4974255;28;20469;-83
2023/11/13 10:02:27;;;;;;;1.60;1.10;;;10.40;98.20;;;;;;4976015;28;20476;-83
2023/11/13 10:04:54;;;;;;;1.60;1.10;;;10.40;98.20;;;;;;4974579;28;20479;-83
2023/11/13 10:07:23;;;;;;;1.60;1.10;;;10.40;98.20;;;;;;4974818;28;20523;-83
2023/11/13 10:10:03;;;;;;;1.60;1.10;;;10.40;98.20;;;;;;4973006;28;20922;-82
2023/11/13 10:12:31;;;;;;;1.60;1.10;;;10.40;98.20;;;;;;4976112;28;20485;-83
2023/11/13 10:15:02;;;;;;;1.60;1.10;;;10.50;98.20;;;;;;4971127;28;20461;-83
2023/11/13 10:17:42;;;;;;;1.60;1.10;;;10.50;98.20;;;;;;4973943;28;20520;-81
2023/11/13 10:20:10;;;;;;;1.60;1.00;;;10.50;98.20;;;;;;4967992;28;20479;-81
2023/11/13 10:22:39;;;;;;;1.60;1.07;;;10.50;98.20;;;;;;4961267;28;21066;-83
2023/11/13 10:25:09;;;;;;;1.60;1.10;;;10.50;98.20;;;;;;4950938;28;20467;-81
2023/11/13 10:27:36;;;;;;;1.63;1.20;;;10.60;98.20;;;;;;4955233;28;20495;-82
2023/11/13 10:30:04;;;;;;;1.60;1.20;;;10.60;98.20;;;;;;4951028;28;20489;-82
2023/11/13 10:32:32;;;;;;;1.60;1.10;;;10.60;98.20;;;;;;4954068;28;20482;-82
2023/11/13 10:34:59;;;;;;;1.60;1.17;;;10.70;98.20;;;;;;4951267;28;20989;-82
2023/11/13 10:37:26;;;;;;;1.60;1.10;;;10.70;98.20;;;;;;4969491;28;21005;-82
2023/11/13 10:39:54;;;;;;;1.63;1.10;;;10.80;98.20;;;;;;4971961;28;20480;-82
2023/11/13 10:42:23;;;;;;;1.60;1.10;;;10.80;98.20;;;;;;4973887;28;20472;-81
2023/11/13 10:44:51;;;;;;;1.60;1.10;;;10.90;98.20;;;;;;4958114;28;20970;-81
2023/11/13 10:47:23;;;;;;;1.60;1.10;;;10.90;98.20;;;;;;4964378;28;20569;-81
2023/11/13 10:49:50;;;;;;;1.60;1.10;;;11.00;98.20;;;;;;4959300;28;21450;-81
2023/11/13 10:52:20;;;;;;;1.60;1.20;;;11.00;98.20;;;;;;4966563;28;20483;-81
2023/11/13 10:54:48;;;;;;;1.60;1.10;;;11.00;98.20;;;;;;4957877;28;20497;-82
2023/11/13 10:57:17;;;;;;;1.60;1.10;;;11.10;98.20;;;;;;4966529;28;20577;-81
2023/11/13 10:59:46;;;;;;;1.60;1.10;;;11.10;98.20;;;;;;4957057;28;20962;-81
2023/11/13 11:02:26;;;;;;;1.60;1.10;;;11.20;98.20;;;;;;4964538;28;20476;-81
2023/11/13 11:04:56;;;;;;;1.60;1.10;;;11.20;98.20;;;;;;4954974;28;20470;-81
2023/11/13 11:07:26;;;;;;;1.63;1.10;;;11.20;98.20;;;;;;4950528;28;20505;-81
2023/11/13 11:09:56;;;;;;;1.60;1.20;;;11.20;98.20;;;;;;4952034;28;20466;-80
2023/11/13 11:12:31;;;;;;;1.60;1.10;;;11.30;98.20;;;;;;4952155;28;20554;-82
2023/11/13 11:15:15;;;;;;;1.60;1.10;;;11.30;98.20;;;;;;4951552;28;20481;-82
2023/11/13 11:17:48;;;;;;;1.60;1.10;;;11.30;98.20;;;;;;4970325;28;20485;-82
2023/11/13 11:20:23;;;;;;;1.63;1.13;;;11.40;98.20;;;;;;4970136;28;20462;-81
2023/11/13 11:22:54;;;;;;;1.67;1.10;;;11.40;98.20;;;;;;4960032;28;20480;-83
2023/11/13 11:25:35;;;;;;;1.63;1.10;;;11.40;98.20;;;;;;4949105;28;20478;-82
2023/11/13 11:28:04;;;;;;;3.10;2.80;;;11.40;98.20;;;;;;4952336;28;20493;-82
2023/11/13 11:30:32;;;;;;;1.60;1.10;;;11.50;98.20;;;;;;4948284;28;20502;-81
2023/11/13 11:33:00;;;;;;;1.70;1.20;;;11.50;98.20;;;;;;4955070;28;20474;-82
2023/11/13 11:35:29;;;;;;;1.60;1.07;;;11.60;98.20;;;;;;4950842;28;21004;-81
2023/11/13 11:38:22;;;;;;;1.70;1.20;;;11.60;98.20;;;;;;4942814;28;20491;-81
2023/11/13 11:40:49;;;;;;;1.80;1.60;;;11.70;98.20;;;;;;4946494;28;20538;-81
2023/11/13 11:43:19;;;;;;;1.67;1.17;;;11.70;98.20;;;;;;4985033;28;20498;-82
2023/11/13 11:45:51;;;;;;;1.70;1.30;;;11.70;98.20;;;;;;4957712;28;20955;-81
2023/11/13 11:48:18;;;;;;;1.60;1.10;;;11.70;98.20;;;;;;4985202;28;20584;-81
2023/11/13 11:50:46;;;;;;;1.60;1.10;;;11.70;98.20;;;;;;4969931;28;20560;-81
2023/11/13 11:53:16;;;;;;;1.60;1.10;;;11.70;98.20;;;;;;4976035;28;20847;-81
2023/11/13 11:55:43;;;;;;;1.60;1.10;;;11.70;98.20;;;;;;4968633;28;20472;-80
2023/11/13 11:58:13;;;;;;;1.60;1.20;;;11.70;98.20;;;;;;4974599;28;20482;-80
2023/11/13 12:00:42;;;;;;;1.60;1.10;;;11.70;98.20;;;;;;4967272;28;20472;-81
2023/11/13 12:03:08;;;;;;;1.60;1.00;;;11.80;98.20;;;;;;4975609;28;20562;-81
2023/11/13 12:05:35;;;;;;;1.63;1.20;;;11.80;98.20;;;;;;4972047;28;20466;-81
2023/11/13 12:08:06;;;;;;;1.60;1.10;;;11.80;98.20;;;;;;4956504;28;21087;-81
2023/11/13 12:10:35;;;;;;;1.60;1.10;;;11.80;98.20;;;;;;4954646;28;20963;-81
2023/11/13 12:13:02;;;;;;;1.60;1.10;;;11.80;98.20;;;;;;4974023;28;20919;-79
2023/11/13 12:15:28;;;;;;;1.60;1.07;;;11.80;98.20;;;;;;4970887;28;20807;-80
2023/11/13 12:17:57;;;;;;;1.60;1.10;;;11.80;98.20;;;;;;4972274;28;20592;-78
2023/11/13 12:20:26;;;;;;;1.60;1.10;;;11.80;98.20;;;;;;4967656;28;20466;-78
2023/11/13 12:22:54;;;;;;;1.60;1.10;;;11.80;98.20;;;;;;4974491;28;20564;-79
2023/11/13 12:25:21;;;;;;;1.60;1.20;;;11.80;98.20;;;;;;4965978;28;20477;-79
2023/11/13 12:27:48;;;;;;;1.60;1.10;;;11.80;98.20;;;;;;4971719;28;20568;-78
2023/11/13 12:30:19;;;;;;;1.60;1.00;;;11.80;98.20;;;;;;4967385;28;20480;-78
2023/11/13 12:32:47;;;;;;;1.60;1.10;;;11.90;98.20;;;;;;4971793;28;20480;-79
2023/11/13 12:35:17;;;;;;;1.60;1.00;;;11.90;98.20;;;;;;4967136;28;20473;-81
2023/11/13 12:37:45;;;;;;;1.60;1.10;;;12.00;98.20;;;;;;4954794;28;20909;-80
2023/11/13 12:40:14;;;;;;;1.60;1.20;;;12.10;98.20;;;;;;4952833;28;20950;-82
2023/11/13 12:42:42;;;;;;;1.60;1.03;;;12.10;98.20;;;;;;4957858;28;20477;-81
2023/11/13 12:45:13;;;;;;;1.60;1.10;;;12.20;98.20;;;;;;4952818;28;20490;-81
2023/11/13 12:47:45;;;;;;;1.60;1.07;;;12.20;98.20;;;;;;4954438;28;20509;-80
2023/11/13 12:50:15;;;;;;;1.60;1.10;;;12.20;98.20;;;;;;4949308;28;20467;-81
2023/11/13 12:52:43;;;;;;;1.63;1.10;;;12.30;98.20;;;;;;4956062;28;20477;-81
2023/11/13 12:55:13;;;;;;;1.60;1.10;;;12.30;98.20;;;;;;4950452;28;20467;-81
2023/11/13 12:57:42;;;;;;;1.60;1.10;;;12.30;98.20;;;;;;4951925;28;20491;-81